Time;durP1;ratioP1;P1;durP2;ratioP2;P2;SDS_P1;SDS_P2;PMS_P1;PMS_P2;Temp;Humidity;BMP_temperature;BMP_pressure;BME280_temperature;BME280_humidity;BME280_pressure;Samples;Min_cycle;Max_cycle;Signal;HPM_P1;HPM_P2
2022/06/05 00:01:17;;;;;;;6.13;3.45;;;18.60;99.90;;;;;;4996182;28;20594;-59
2022/06/05 00:03:57;;;;;;;7.03;3.88;;;18.40;99.90;;;;;;4992181;28;20049;-59
2022/06/05 00:06:43;;;;;;;6.65;4.28;;;18.30;99.90;;;;;;4995563;28;20053;-59
2022/06/05 00:09:18;;;;;;;6.50;3.88;;;18.20;99.90;;;;;;4995982;28;20025;-59
2022/06/05 00:11:56;;;;;;;6.05;3.72;;;18.30;99.90;;;;;;4994463;28;20029;-59
2022/06/05 00:14:22;;;;;;;6.22;3.90;;;18.10;99.90;;;;;;4976432;28;20038;-59
2022/06/05 00:16:48;;;;;;;6.88;4.00;;;17.80;99.90;;;;;;5003523;28;20028;-58
2022/06/05 00:19:14;;;;;;;4.95;3.60;;;17.80;99.90;;;;;;4996223;28;20109;-59
2022/06/05 00:21:39;;;;;;;6.65;3.50;;;17.90;99.90;;;;;;4995582;28;20112;-59
2022/06/05 00:24:05;;;;;;;8.38;3.92;;;17.90;99.90;;;;;;4996283;28;20557;-59
2022/06/05 00:26:37;;;;;;;6.50;3.50;;;18.00;99.90;;;;;;4996327;28;20054;-59
2022/06/05 00:29:23;;;;;;;9.40;3.70;;;18.10;99.90;;;;;;4997577;28;20367;-59
2022/06/05 00:32:11;;;;;;;6.90;3.58;;;18.20;99.90;;;;;;5007063;28;20204;-59
2022/06/05 00:34:37;;;;;;;7.00;3.67;;;18.20;99.90;;;;;;4998202;28;20051;-58
2022/06/05 00:37:19;;;;;;;7.43;3.70;;;18.10;99.90;;;;;;4998851;28;20495;-59
2022/06/05 00:40:27;;;;;;;6.55;3.63;;;18.10;99.90;;;;;;4999709;28;20034;-59
2022/06/05 00:42:52;;;;;;;5.50;3.50;;;18.20;99.90;;;;;;4996392;28;20078;-59
2022/06/05 00:45:19;;;;;;;6.72;3.70;;;18.30;99.90;;;;;;4999051;28;20436;-60
2022/06/05 00:47:46;;;;;;;7.70;3.63;;;18.20;99.90;;;;;;4997836;28;20087;-59
2022/06/05 00:50:32;;;;;;;9.05;4.10;;;18.20;99.90;;;;;;4996018;28;20029;-59
2022/06/05 00:53:01;;;;;;;7.75;4.30;;;18.20;99.90;;;;;;5007255;28;20045;-58
2022/06/05 00:55:35;;;;;;;7.60;3.95;;;18.10;99.90;;;;;;4998625;28;20130;-59
2022/06/05 00:58:01;;;;;;;9.77;4.10;;;18.20;99.90;;;;;;4998939;28;20031;-59
2022/06/05 01:00:31;;;;;;;7.30;4.38;;;18.10;99.90;;;;;;4998924;28;20089;-59
2022/06/05 01:02:59;;;;;;;7.22;4.00;;;18.00;99.90;;;;;;4998616;28;20026;-59
2022/06/05 01:05:26;;;;;;;5.80;3.83;;;18.00;99.90;;;;;;4994788;28;20504;-59
2022/06/05 01:07:52;;;;;;;5.57;3.80;;;18.20;99.90;;;;;;4999016;28;20026;-59
2022/06/05 01:10:20;;;;;;;5.10;3.50;;;18.20;99.90;;;;;;4998668;28;20042;-59
2022/06/05 01:13:02;;;;;;;7.10;3.75;;;18.40;99.90;;;;;;4998803;28;20034;-59
2022/06/05 01:15:40;;;;;;;8.23;3.58;;;18.40;99.90;;;;;;4998818;28;20110;-59
2022/06/05 01:18:17;;;;;;;8.02;3.67;;;18.40;99.90;;;;;;4998358;28;20022;-59
2022/06/05 01:21:02;;;;;;;7.25;3.83;;;18.50;99.90;;;;;;4996561;28;20034;-59
2022/06/05 01:24:09;;;;;;;7.78;3.72;;;18.50;99.90;;;;;;4979856;28;20113;-59
2022/06/05 01:27:11;;;;;;;7.80;3.88;;;18.30;99.90;;;;;;4960275;28;20561;-59
2022/06/05 01:29:46;;;;;;;7.68;3.75;;;18.50;99.90;;;;;;4960232;28;20050;-59
2022/06/05 01:32:23;;;;;;;10.50;4.07;;;18.40;99.90;;;;;;4987936;28;20125;-59
2022/06/05 01:35:07;;;;;;;8.27;3.65;;;18.30;99.90;;;;;;4983598;28;20044;-59
2022/06/05 01:37:50;;;;;;;6.65;3.95;;;18.20;99.90;;;;;;4974022;28;20070;-59
2022/06/05 01:40:21;;;;;;;8.40;3.92;;;18.30;99.90;;;;;;4982842;28;20507;-59
2022/06/05 01:42:57;;;;;;;7.18;3.88;;;18.20;99.90;;;;;;4982897;28;20054;-59
2022/06/05 01:45:31;;;;;;;8.90;4.15;;;18.10;99.90;;;;;;4966638;28;20031;-59
2022/06/05 01:48:00;;;;;;;7.93;3.85;;;18.10;99.90;;;;;;4987100;28;20045;-59
2022/06/05 01:50:39;;;;;;;7.68;3.80;;;18.30;99.90;;;;;;4972001;28;20030;-59
2022/06/05 01:53:10;;;;;;;6.32;3.65;;;18.20;99.90;;;;;;4987405;28;20451;-59
2022/06/05 01:56:00;;;;;;;7.70;3.50;;;18.20;99.90;;;;;;4976879;28;20038;-59
2022/06/05 01:58:36;;;;;;;8.88;4.03;;;18.20;99.90;;;;;;4975786;28;20035;-59
2022/06/05 02:01:07;;;;;;;7.30;4.43;;;18.00;99.90;;;;;;4980849;28;20034;-59
2022/06/05 02:04:04;;;;;;;7.93;4.70;;;17.90;99.90;;;;;;4991904;28;20042;-59
2022/06/05 02:07:04;;;;;;;6.43;4.45;;;17.80;99.90;;;;;;4995741;28;20120;-59
2022/06/05 02:10:02;;;;;;;9.38;5.00;;;17.90;99.90;;;;;;4976341;28;20141;-58
2022/06/05 02:12:28;;;;;;;8.35;4.65;;;17.80;99.90;;;;;;4905600;29;20041;-59
2022/06/05 02:14:55;;;;;;;8.40;3.97;;;17.80;99.90;;;;;;4895547;29;20040;-59
2022/06/05 02:17:21;;;;;;;8.18;4.28;;;17.80;99.90;;;;;;4894912;29;20040;-59
2022/06/05 02:19:47;;;;;;;6.95;4.50;;;17.90;99.90;;;;;;4910166;29;20048;-59
2022/06/05 02:22:20;;;;;;;7.68;4.68;;;17.80;99.90;;;;;;4905656;29;20086;-59
2022/06/05 02:24:46;;;;;;;7.72;4.30;;;17.70;99.90;;;;;;4905632;29;20046;-59
2022/06/05 02:27:12;;;;;;;6.53;4.05;;;17.80;99.90;;;;;;4906053;29;20510;-58
2022/06/05 02:29:38;;;;;;;6.85;4.13;;;18.00;99.90;;;;;;4907906;29;20131;-59
2022/06/05 02:32:33;;;;;;;7.28;4.53;;;18.20;99.90;;;;;;4909904;29;20111;-59
2022/06/05 02:35:01;;;;;;;10.23;4.55;;;18.00;99.90;;;;;;4851114;29;20132;-59
2022/06/05 02:38:03;;;;;;;9.45;5.18;;;17.90;99.90;;;;;;4843632;29;20052;-59
2022/06/05 02:40:43;;;;;;;8.30;4.68;;;17.90;99.90;;;;;;4843331;29;20052;-58
2022/06/05 02:43:31;;;;;;;6.53;4.50;;;17.90;99.90;;;;;;4840466;29;20034;-59
2022/06/05 02:46:01;;;;;;;9.35;4.85;;;17.90;99.90;;;;;;4855862;29;20045;-59
2022/06/05 02:48:33;;;;;;;6.93;4.10;;;18.00;99.90;;;;;;4909502;29;20179;-59
2022/06/05 02:51:16;;;;;;;8.40;4.50;;;18.10;99.90;;;;;;4935462;29;20042;-59
2022/06/05 02:53:52;;;;;;;9.98;4.47;;;18.00;99.90;;;;;;4932054;29;20051;-59
2022/06/05 02:56:18;;;;;;;10.15;4.90;;;18.10;99.90;;;;;;4932005;29;20035;-59
2022/06/05 02:58:46;;;;;;;7.40;4.90;;;17.90;99.90;;;;;;4937066;29;20179;-59
2022/06/05 03:03:56;;;;;;;6.75;4.75;;;18.10;99.90;;;;;;4933886;29;20050;-59
2022/06/05 03:06:21;;;;;;;8.35;5.18;;;18.00;99.90;;;;;;4933517;29;20044;-59
2022/06/05 03:08:47;;;;;;;9.77;5.40;;;17.80;99.90;;;;;;4934309;29;20099;-59
2022/06/05 03:11:13;;;;;;;9.73;5.53;;;17.80;99.90;;;;;;4943009;28;20061;-59
2022/06/05 03:13:39;;;;;;;8.60;4.50;;;17.90;99.90;;;;;;4996880;28;20514;-59
2022/06/05 03:16:07;;;;;;;7.78;4.60;;;18.00;99.90;;;;;;4996430;28;20027;-59
2022/06/05 03:18:33;;;;;;;11.15;4.72;;;17.90;99.90;;;;;;4996296;28;20079;-59
2022/06/05 03:20:58;;;;;;;8.13;4.95;;;17.80;99.90;;;;;;4996412;28;20496;-59
2022/06/05 03:23:26;;;;;;;8.32;5.10;;;17.80;99.90;;;;;;4992203;28;20023;-59
2022/06/05 03:25:52;;;;;;;8.77;4.68;;;17.80;99.90;;;;;;4996793;28;20038;-59
2022/06/05 03:28:18;;;;;;;7.80;4.78;;;17.80;99.90;;;;;;4996227;28;20030;-59
2022/06/05 03:30:44;;;;;;;10.70;5.10;;;17.90;99.90;;;;;;4995920;28;20486;-59
2022/06/05 03:33:10;;;;;;;10.20;5.00;;;17.80;99.90;;;;;;4996119;28;20042;-59
2022/06/05 03:35:38;;;;;;;7.63;5.10;;;17.80;99.90;;;;;;4993853;28;20031;-59
2022/06/05 03:38:05;;;;;;;9.10;5.13;;;17.70;99.90;;;;;;4994400;28;20027;-59
2022/06/05 03:40:31;;;;;;;8.27;4.90;;;17.70;99.90;;;;;;4996819;28;20431;-60
2022/06/05 03:42:57;;;;;;;13.18;5.43;;;17.90;99.90;;;;;;4996331;28;20102;-59
2022/06/05 03:45:23;;;;;;;10.68;4.95;;;18.00;99.90;;;;;;4995955;28;20058;-59
2022/06/05 03:47:49;;;;;;;9.65;4.75;;;17.90;99.90;;;;;;4995377;28;20109;-59
2022/06/05 03:50:16;;;;;;;8.80;4.47;;;18.20;99.90;;;;;;4993001;28;20170;-59
2022/06/05 03:52:42;;;;;;;10.38;4.93;;;18.20;99.90;;;;;;4996598;28;20414;-58
2022/06/05 03:55:12;;;;;;;8.98;4.97;;;18.30;99.90;;;;;;4995938;28;20054;-59
2022/06/05 03:57:38;;;;;;;12.07;5.10;;;18.20;99.90;;;;;;4995950;28;20030;-59
2022/06/05 04:00:05;;;;;;;11.48;5.60;;;18.40;99.90;;;;;;4997463;28;20052;-59
2022/06/05 04:02:31;;;;;;;6.63;4.20;;;18.30;99.90;;;;;;4996636;28;20015;-59
2022/06/05 04:05:00;;;;;;;10.52;4.47;;;18.20;99.90;;;;;;4999014;28;20104;-59
2022/06/05 04:07:25;;;;;;;10.57;4.50;;;18.10;99.90;;;;;;4999612;28;20058;-59
2022/06/05 04:09:51;;;;;;;9.93;5.03;;;18.10;99.90;;;;;;4998335;28;20573;-59
2022/06/05 04:12:17;;;;;;;12.63;5.20;;;18.00;99.90;;;;;;4999632;28;20053;-59
2022/06/05 04:14:42;;;;;;;10.23;4.45;;;17.90;99.90;;;;;;4997523;28;20608;-59
2022/06/05 04:17:10;;;;;;;11.32;4.97;;;17.80;99.90;;;;;;4997092;28;20097;-59
2022/06/05 04:19:36;;;;;;;13.07;5.15;;;17.60;99.90;;;;;;5000128;28;20537;-59
2022/06/05 04:22:02;;;;;;;10.77;5.43;;;17.50;99.90;;;;;;4999401;28;20034;-59
2022/06/05 04:24:28;;;;;;;9.88;5.25;;;17.40;99.90;;;;;;4999384;28;20077;-59
2022/06/05 04:26:54;;;;;;;9.77;5.15;;;17.40;99.90;;;;;;4999342;28;20026;-59
2022/06/05 04:29:20;;;;;;;9.05;4.85;;;17.40;99.90;;;;;;4995070;28;20054;-59
2022/06/05 04:31:46;;;;;;;7.15;5.47;;;17.60;99.90;;;;;;4999948;28;20118;-59
2022/06/05 04:34:19;;;;;;;10.23;5.20;;;17.60;99.90;;;;;;4999098;28;20070;-59
2022/06/05 04:36:46;;;;;;;12.52;5.38;;;17.70;99.90;;;;;;4999253;28;20050;-59
2022/06/05 04:39:13;;;;;;;9.40;4.80;;;17.60;99.90;;;;;;4998140;28;20494;-59
2022/06/05 04:41:39;;;;;;;11.27;5.53;;;17.70;99.90;;;;;;4996666;28;20036;-59
2022/06/05 04:44:07;;;;;;;11.30;4.70;;;17.80;99.90;;;;;;4995534;28;20525;-58
2022/06/05 04:46:33;;;;;;;10.30;5.07;;;17.90;99.90;;;;;;4997689;28;20117;-59
2022/06/05 04:48:59;;;;;;;8.95;4.82;;;17.90;99.90;;;;;;4999001;28;20031;-59
2022/06/05 04:51:26;;;;;;;11.73;5.60;;;17.80;99.90;;;;;;4998944;28;20037;-59
2022/06/05 04:53:54;;;;;;;8.88;5.10;;;17.70;99.90;;;;;;4998255;28;20049;-59
2022/06/05 04:56:24;;;;;;;8.25;5.07;;;17.70;99.90;;;;;;4994687;28;20114;-59
2022/06/05 04:58:50;;;;;;;8.32;4.60;;;17.70;99.90;;;;;;5006701;28;20055;-59
2022/06/05 05:01:37;;;;;;;11.18;5.00;;;17.90;99.90;;;;;;4999019;28;20395;-59
2022/06/05 05:04:09;;;;;;;13.70;4.85;;;17.90;99.90;;;;;;4998732;28;20114;-59
2022/06/05 05:06:36;;;;;;;7.82;4.88;;;18.00;99.90;;;;;;4998689;28;20101;-59
2022/06/05 05:09:03;;;;;;;9.15;5.40;;;17.90;99.90;;;;;;4998589;28;20018;-59
2022/06/05 05:11:29;;;;;;;13.70;5.18;;;17.70;99.90;;;;;;4994801;28;20030;-59
2022/06/05 05:13:56;;;;;;;8.95;5.07;;;17.80;99.90;;;;;;4998290;28;20039;-59
2022/06/05 05:16:22;;;;;;;10.63;4.75;;;17.90;99.90;;;;;;4998666;28;20030;-59
2022/06/05 05:18:48;;;;;;;9.00;4.88;;;17.90;99.90;;;;;;4998462;28;20038;-59
2022/06/05 05:21:19;;;;;;;8.73;5.38;;;18.00;99.90;;;;;;4998267;28;20509;-59
2022/06/05 05:23:45;;;;;;;8.80;4.93;;;18.20;99.90;;;;;;4997403;28;20151;-59
2022/06/05 05:26:17;;;;;;;8.40;5.20;;;18.20;99.90;;;;;;4994932;28;20019;-59
2022/06/05 05:28:45;;;;;;;8.35;5.25;;;18.30;99.90;;;;;;4999040;28;20051;-59
2022/06/05 05:31:17;;;;;;;7.65;4.75;;;18.20;99.90;;;;;;5003825;28;20030;-59
2022/06/05 05:33:43;;;;;;;7.20;5.43;;;18.20;99.90;;;;;;5002825;28;20571;-59
2022/06/05 05:36:10;;;;;;;7.57;4.95;;;18.10;99.90;;;;;;4998548;28;20105;-59
2022/06/05 05:38:37;;;;;;;8.80;5.35;;;18.10;99.90;;;;;;4995501;28;20034;-59
2022/06/05 05:43:48;;;;;;;9.05;5.18;;;18.20;99.90;;;;;;5010058;28;20033;-59
2022/06/05 05:46:16;;;;;;;7.53;4.68;;;18.30;99.90;;;;;;4998693;28;20038;-59
2022/06/05 05:48:41;;;;;;;7.07;4.80;;;18.40;99.90;;;;;;4997868;28;20124;-59
2022/06/05 05:51:12;;;;;;;6.63;4.72;;;18.40;99.90;;;;;;4997916;28;20085;-59
2022/06/05 05:53:38;;;;;;;7.60;4.82;;;18.50;99.90;;;;;;4995314;28;20096;-59
2022/06/05 05:56:09;;;;;;;6.70;4.32;;;18.70;99.90;;;;;;4995459;28;20048;-59
2022/06/05 05:58:35;;;;;;;7.65;4.82;;;18.90;99.90;;;;;;4996593;28;20169;-59
2022/06/05 06:01:03;;;;;;;8.80;5.00;;;18.90;99.90;;;;;;4997606;28;20185;-59
2022/06/05 06:03:29;;;;;;;6.72;4.43;;;18.80;99.90;;;;;;4997401;28;20030;-59
2022/06/05 06:05:57;;;;;;;9.20;4.93;;;18.80;99.90;;;;;;4997557;28;20028;-59
2022/06/05 06:08:22;;;;;;;7.18;4.90;;;18.90;99.90;;;;;;4978066;28;20080;-59
2022/06/05 06:10:48;;;;;;;8.65;4.95;;;18.70;99.90;;;;;;5005026;28;20486;-59
2022/06/05 06:13:14;;;;;;;10.27;4.93;;;18.70;99.90;;;;;;4997668;28;20041;-59
2022/06/05 06:15:40;;;;;;;9.93;4.60;;;18.70;99.90;;;;;;4997441;28;20118;-59
2022/06/05 06:18:05;;;;;;;8.38;4.68;;;18.80;99.90;;;;;;4996244;28;20022;-59
2022/06/05 06:20:31;;;;;;;6.65;4.47;;;18.80;99.90;;;;;;4993311;28;20019;-59
2022/06/05 06:22:57;;;;;;;7.47;4.63;;;18.90;99.90;;;;;;4995862;28;20038;-59
2022/06/05 06:25:22;;;;;;;7.25;4.10;;;18.90;99.90;;;;;;4997119;28;20038;-59
2022/06/05 06:27:48;;;;;;;8.55;4.93;;;19.00;99.90;;;;;;4997567;28;20030;-59
2022/06/05 06:30:14;;;;;;;5.93;4.35;;;18.90;99.90;;;;;;4996951;28;20026;-59
2022/06/05 06:32:39;;;;;;;8.00;4.80;;;18.90;99.90;;;;;;4994835;28;20038;-59
2022/06/05 06:35:06;;;;;;;9.40;4.60;;;18.80;99.90;;;;;;4994939;28;20026;-59
2022/06/05 06:37:31;;;;;;;5.43;4.38;;;18.90;99.90;;;;;;5010515;28;20029;-58
2022/06/05 06:39:57;;;;;;;6.75;4.32;;;19.00;99.90;;;;;;4999849;28;20034;-59
2022/06/05 06:42:23;;;;;;;7.80;4.50;;;19.30;99.90;;;;;;4997014;28;20061;-60
2022/06/05 06:44:49;;;;;;;7.70;4.45;;;19.10;99.90;;;;;;4996056;28;20026;-60
2022/06/05 06:47:14;;;;;;;8.73;4.88;;;19.20;99.90;;;;;;4993482;28;20023;-59
2022/06/05 06:49:40;;;;;;;6.85;4.30;;;19.40;99.90;;;;;;4996109;28;20038;-59
2022/06/05 06:52:06;;;;;;;8.07;4.35;;;19.40;99.90;;;;;;4996387;28;20474;-59
2022/06/05 06:54:32;;;;;;;6.07;4.40;;;19.40;99.90;;;;;;4996500;28;20120;-59
2022/06/05 06:56:57;;;;;;;9.13;4.68;;;19.40;99.90;;;;;;4997104;28;20057;-59
2022/06/05 06:59:24;;;;;;;6.88;4.60;;;19.50;99.90;;;;;;4992613;28;20034;-59
2022/06/05 07:01:50;;;;;;;9.23;4.40;;;19.60;99.90;;;;;;4997091;28;20034;-60
2022/06/05 07:04:17;;;;;;;9.00;4.00;;;19.70;99.90;;;;;;4995289;28;20036;-59
2022/06/05 07:06:43;;;;;;;9.75;4.00;;;19.70;99.90;;;;;;4996061;28;20038;-59
2022/06/05 07:09:11;;;;;;;5.38;4.20;;;19.80;99.90;;;;;;4996518;28;20471;-59
2022/06/05 07:11:37;;;;;;;7.80;3.80;;;19.90;99.90;;;;;;4994058;28;20034;-59
2022/06/05 07:14:03;;;;;;;7.63;3.88;;;20.20;99.90;;;;;;4994630;28;20038;-59
2022/06/05 07:16:29;;;;;;;5.78;3.40;;;20.50;99.90;;;;;;4997284;28;20026;-59
2022/06/05 07:18:54;;;;;;;10.50;4.05;;;20.80;99.90;;;;;;4996401;28;20034;-59
2022/06/05 07:21:23;;;;;;;7.07;3.47;;;20.80;99.90;;;;;;4995932;28;20034;-59
2022/06/05 07:23:49;;;;;;;6.03;3.70;;;21.00;99.90;;;;;;4995460;28;20033;-60
2022/06/05 07:26:17;;;;;;;8.32;3.70;;;21.20;99.90;;;;;;4992835;28;20129;-60
2022/06/05 07:28:43;;;;;;;6.80;3.40;;;21.20;99.90;;;;;;4997312;28;20023;-59
2022/06/05 07:31:11;;;;;;;7.85;3.65;;;21.00;99.90;;;;;;4996253;28;20502;-59
2022/06/05 07:33:41;;;;;;;7.40;3.60;;;21.00;99.90;;;;;;4995703;28;20026;-58
2022/06/05 07:36:11;;;;;;;7.43;3.60;;;20.80;99.90;;;;;;4994584;28;20042;-58
2022/06/05 07:38:38;;;;;;;9.23;3.72;;;20.60;99.90;;;;;;4995186;28;20058;-58
2022/06/05 07:41:06;;;;;;;5.13;3.50;;;20.40;99.90;;;;;;4995843;28;20093;-58
2022/06/05 07:43:32;;;;;;;4.38;3.30;;;20.70;99.90;;;;;;4995850;28;20056;-59
2022/06/05 07:46:02;;;;;;;6.47;3.17;;;21.10;99.90;;;;;;4995371;28;20068;-58
2022/06/05 07:48:28;;;;;;;4.05;3.00;;;21.20;99.90;;;;;;4995295;28;20487;-58
2022/06/05 07:56:31;;;;;;;6.07;3.10;;;22.10;99.90;;;;;;4996003;28;20053;-58
2022/06/05 07:58:56;;;;;;;7.78;2.70;;;22.50;99.90;;;;;;4995346;28;20471;-59
2022/06/05 08:01:22;;;;;;;6.13;2.90;;;23.00;99.90;;;;;;4999744;28;20050;-59
2022/06/05 08:03:48;;;;;;;5.53;2.80;;;23.70;99.90;;;;;;4999411;28;20533;-59
2022/06/05 08:06:13;;;;;;;5.85;2.72;;;24.20;99.90;;;;;;4998596;28;20079;-59
2022/06/05 08:08:39;;;;;;;4.63;2.72;;;24.80;99.90;;;;;;4997081;28;20625;-59
2022/06/05 08:11:06;;;;;;;6.78;3.00;;;24.40;99.90;;;;;;4997078;28;20018;-58
2022/06/05 08:13:32;;;;;;;4.07;2.60;;;24.40;99.90;;;;;;4998508;28;20065;-60
2022/06/05 08:15:58;;;;;;;6.85;2.78;;;24.60;99.90;;;;;;4997753;28;20035;-59
2022/06/05 08:18:24;;;;;;;4.00;2.33;;;29.00;99.90;;;;;;4999038;28;20022;-58
2022/06/05 08:20:50;;;;;;;7.03;2.63;;;26.40;99.90;;;;;;4996954;28;20413;-60
2022/06/05 08:23:16;;;;;;;6.72;2.47;;;24.60;99.90;;;;;;4995690;28;20137;-60
2022/06/05 08:25:42;;;;;;;4.35;2.60;;;23.70;99.90;;;;;;4999980;28;20029;-59
2022/06/05 08:28:08;;;;;;;5.22;3.03;;;25.00;99.90;;;;;;4999207;28;20030;-60
2022/06/05 08:30:35;;;;;;;5.47;2.70;;;26.50;99.90;;;;;;4998966;28;20539;-60
2022/06/05 08:33:01;;;;;;;5.93;2.78;;;30.20;99.90;;;;;;4998866;28;20053;-60
2022/06/05 08:35:27;;;;;;;6.75;2.70;;;31.00;97.50;;;;;;4995107;28;20049;-59
2022/06/05 08:43:44;;;;;;;5.05;2.28;;;28.50;97.80;;;;;;4998983;28;20045;-58
2022/06/05 08:46:16;;;;;;;8.65;2.72;;;26.10;99.90;;;;;;4998646;28;20037;-60
2022/06/05 08:48:51;;;;;;;4.80;2.40;;;25.10;99.90;;;;;;4998788;28;20042;-60
2022/06/05 08:51:40;;;;;;;4.57;2.13;;;25.10;99.90;;;;;;4997595;28;20041;-58
2022/06/05 08:54:11;;;;;;;7.38;2.08;;;26.00;99.90;;;;;;4998697;28;20050;-59
2022/06/05 08:56:49;;;;;;;4.78;2.30;;;25.70;99.90;;;;;;4996343;28;20133;-59
2022/06/05 08:59:49;;;;;;;8.23;2.47;;;24.90;99.90;;;;;;4995907;28;20030;-60
2022/06/05 09:02:21;;;;;;;7.55;2.50;;;24.00;99.90;;;;;;5009523;28;20030;-58
2022/06/05 09:05:04;;;;;;;9.60;2.40;;;24.10;99.90;;;;;;4999377;28;20034;-59
2022/06/05 09:07:42;;;;;;;8.65;2.70;;;25.00;99.90;;;;;;4998881;28;20030;-59
2022/06/05 09:10:31;;;;;;;5.85;2.22;;;26.00;99.90;;;;;;4998525;28;20018;-59
2022/06/05 09:13:20;;;;;;;5.18;2.38;;;24.30;99.90;;;;;;4998159;28;20057;-59
2022/06/05 09:15:47;;;;;;;4.95;2.47;;;23.50;99.90;;;;;;4998755;28;20033;-59
2022/06/05 09:18:25;;;;;;;4.22;2.38;;;23.10;99.90;;;;;;4998444;28;20034;-59
2022/06/05 09:20:53;;;;;;;7.47;2.58;;;22.80;99.90;;;;;;4993361;28;20030;-59
2022/06/05 09:23:22;;;;;;;4.30;2.45;;;22.90;99.90;;;;;;4993252;28;20063;-59
2022/06/05 09:25:53;;;;;;;4.75;2.63;;;22.90;99.90;;;;;;4996579;28;20015;-58
2022/06/05 09:28:25;;;;;;;4.70;2.38;;;23.00;99.90;;;;;;4993436;28;20038;-59
2022/06/05 09:31:20;;;;;;;4.88;2.60;;;23.30;99.90;;;;;;4991130;28;20053;-58
2022/06/05 09:33:48;;;;;;;7.00;2.90;;;23.70;99.90;;;;;;4997582;28;20052;-58
2022/06/05 09:36:18;;;;;;;4.70;2.60;;;23.60;99.90;;;;;;4996640;28;20498;-58
2022/06/05 09:39:26;;;;;;;3.35;2.35;;;23.80;99.90;;;;;;4995807;28;20060;-58
2022/06/05 09:41:57;;;;;;;5.40;2.45;;;25.20;99.90;;;;;;4941372;29;20023;-58
2022/06/05 09:44:50;;;;;;;5.88;2.72;;;25.60;99.90;;;;;;4937378;29;20551;-59
2022/06/05 09:47:54;;;;;;;4.45;2.35;;;24.40;99.90;;;;;;4950756;29;20040;-59
2022/06/05 09:50:25;;;;;;;5.22;2.60;;;23.60;99.90;;;;;;4952208;29;20548;-59
2022/06/05 09:52:52;;;;;;;4.90;2.65;;;23.20;99.90;;;;;;4947831;29;20027;-61
2022/06/05 09:55:19;;;;;;;5.22;2.72;;;23.00;99.90;;;;;;4948275;29;20043;-59
2022/06/05 10:00:44;;;;;;;4.53;2.92;;;23.60;99.90;;;;;;4947941;28;20540;-59
2022/06/05 10:03:16;;;;;;;6.22;2.90;;;24.00;99.90;;;;;;4952231;29;20114;-59
2022/06/05 10:05:45;;;;;;;4.25;2.63;;;23.90;99.90;;;;;;4950545;29;20074;-59
2022/06/05 10:08:28;;;;;;;5.47;2.30;;;23.20;99.90;;;;;;4950615;29;20023;-59
2022/06/05 10:10:59;;;;;;;6.30;2.45;;;23.00;99.90;;;;;;4949074;28;20503;-58
2022/06/05 10:13:43;;;;;;;4.85;3.00;;;23.10;99.90;;;;;;4993411;28;20145;-59
2022/06/05 10:16:18;;;;;;;5.72;2.33;;;23.00;99.90;;;;;;4999022;28;20026;-59
2022/06/05 10:19:22;;;;;;;4.75;2.50;;;23.30;99.90;;;;;;4997311;28;20114;-59
2022/06/05 10:21:58;;;;;;;4.50;2.47;;;23.50;99.90;;;;;;4996703;28;20028;-59
2022/06/05 10:24:38;;;;;;;5.65;2.60;;;24.90;99.90;;;;;;4997157;28;20069;-59
2022/06/05 10:27:05;;;;;;;6.75;2.80;;;24.90;99.90;;;;;;4997054;28;20018;-59
2022/06/05 10:29:33;;;;;;;4.07;2.70;;;24.70;99.90;;;;;;4993803;28;20520;-60
2022/06/05 10:32:02;;;;;;;7.90;2.80;;;25.30;99.90;;;;;;4995864;28;20031;-60
2022/06/05 10:34:46;;;;;;;4.40;2.50;;;25.30;99.90;;;;;;4996581;28;20046;-60
2022/06/05 10:37:12;;;;;;;5.57;2.50;;;24.80;99.90;;;;;;4996681;28;20097;-60
2022/06/05 10:39:59;;;;;;;3.63;2.28;;;24.50;99.90;;;;;;4996821;28;20612;-59
2022/06/05 10:42:33;;;;;;;4.60;2.47;;;24.30;99.90;;;;;;4996222;28;20026;-60
2022/06/05 10:45:21;;;;;;;5.50;2.50;;;24.10;99.90;;;;;;4996573;28;20030;-60
2022/06/05 10:47:57;;;;;;;4.82;2.45;;;24.00;99.90;;;;;;4995443;28;20442;-59
2022/06/05 10:50:44;;;;;;;4.55;2.30;;;23.90;99.90;;;;;;4977059;28;20031;-59
2022/06/05 10:53:33;;;;;;;4.60;2.33;;;23.70;99.90;;;;;;5006513;28;20122;-58
2022/06/05 10:56:18;;;;;;;4.53;2.38;;;23.50;99.90;;;;;;4967637;28;20049;-58
2022/06/05 10:59:05;;;;;;;5.97;2.63;;;23.10;99.90;;;;;;4970865;28;20043;-59
2022/06/05 11:02:09;;;;;;;2.85;2.45;;;23.20;99.90;;;;;;4971017;28;20157;-59
2022/06/05 11:04:40;;;;;;;;;;;23.20;99.90;;;;;;4969637;28;20051;-58
2022/06/05 11:07:19;;;;;;;3.47;2.25;;;23.20;99.90;;;;;;4970537;28;19910;-59
2022/06/05 11:09:57;;;;;;;5.00;2.50;;;23.20;99.90;;;;;;4970545;28;20123;-60
2022/06/05 11:15:51;;;;;;;3.65;2.40;;;23.90;99.90;;;;;;4969452;28;20119;-60
2022/06/05 11:18:26;;;;;;;4.30;2.28;;;23.90;99.90;;;;;;4966766;28;20034;-62
2022/06/05 11:20:57;;;;;;;4.47;2.13;;;24.80;99.90;;;;;;4969785;28;20046;-61
2022/06/05 11:23:29;;;;;;;3.88;2.00;;;24.80;99.90;;;;;;4954208;28;20045;-60
2022/06/05 11:26:04;;;;;;;4.30;1.88;;;24.10;99.90;;;;;;4966825;28;20125;-61
2022/06/05 11:28:42;;;;;;;4.88;2.17;;;23.90;99.90;;;;;;4966261;28;20066;-60
2022/06/05 11:31:30;;;;;;;4.35;2.45;;;24.20;99.90;;;;;;4969961;28;20121;-61
2022/06/05 11:34:04;;;;;;;3.22;2.20;;;24.00;99.90;;;;;;4989821;28;20038;-59
2022/06/05 11:36:41;;;;;;;4.55;2.20;;;24.10;99.90;;;;;;4989350;28;20105;-61
2022/06/05 11:39:26;;;;;;;5.47;2.28;;;24.40;99.90;;;;;;4993734;28;20418;-61
2022/06/05 11:42:23;;;;;;;4.28;1.80;;;24.80;99.90;;;;;;4995413;28;20026;-60
2022/06/05 11:45:10;;;;;;;4.10;2.38;;;25.00;99.90;;;;;;4982741;28;20037;-61
2022/06/05 11:47:47;;;;;;;3.75;2.00;;;24.90;99.90;;;;;;4978821;28;20034;-60
2022/06/05 11:50:47;;;;;;;4.60;2.30;;;25.10;99.90;;;;;;4992838;28;20391;-61
2022/06/05 11:53:34;;;;;;;3.92;1.83;;;24.80;99.90;;;;;;4966442;28;20890;-59
2022/06/05 11:56:18;;;;;;;3.85;2.35;;;24.80;99.90;;;;;;4966287;28;20039;-61
2022/06/05 11:58:51;;;;;;;3.22;1.90;;;25.20;99.90;;;;;;4970185;28;20098;-61
2022/06/05 12:01:20;;;;;;;7.50;2.20;;;25.20;99.90;;;;;;4966841;28;20038;-62
2022/06/05 12:03:52;;;;;;;3.97;2.00;;;25.30;99.90;;;;;;4968293;28;20471;-62
2022/06/05 12:06:42;;;;;;;3.95;1.90;;;25.10;99.90;;;;;;4968249;28;20038;-63
2022/06/05 12:09:16;;;;;;;2.78;1.73;;;25.00;99.90;;;;;;4966548;28;20019;-62
2022/06/05 12:12:06;;;;;;;3.30;2.10;;;25.20;99.90;;;;;;4966989;28;20046;-62
2022/06/05 12:15:01;;;;;;;2.95;1.88;;;24.80;99.90;;;;;;4954247;28;20035;-62
2022/06/05 12:17:43;;;;;;;3.88;2.10;;;24.70;99.90;;;;;;4956063;28;20085;-63
2022/06/05 12:20:31;;;;;;;4.85;2.00;;;24.70;99.90;;;;;;4970086;28;20517;-61
2022/06/05 12:23:01;;;;;;;4.28;2.20;;;24.60;99.90;;;;;;4953739;28;20043;-59
2022/06/05 12:25:34;;;;;;;3.85;1.88;;;24.50;99.90;;;;;;4972653;28;20027;-60
2022/06/05 12:28:09;;;;;;;5.32;1.90;;;24.40;99.90;;;;;;4971870;28;20030;-61
2022/06/05 12:30:41;;;;;;;3.35;1.92;;;24.30;99.90;;;;;;4989333;28;20037;-60
2022/06/05 12:33:36;;;;;;;6.57;2.00;;;24.20;99.90;;;;;;4997973;28;20390;-60
2022/06/05 12:36:29;;;;;;;4.50;1.90;;;24.40;99.90;;;;;;4997732;28;20022;-59
2022/06/05 12:39:04;;;;;;;3.97;1.90;;;24.70;99.90;;;;;;4972453;28;20027;-60
2022/06/05 12:41:48;;;;;;;4.35;1.60;;;24.50;99.90;;;;;;4972937;28;20051;-61
2022/06/05 12:44:23;;;;;;;4.68;1.77;;;24.80;99.90;;;;;;4988719;28;20034;-60
2022/06/05 12:46:54;;;;;;;3.58;1.70;;;24.70;99.90;;;;;;4977688;28;20027;-61
2022/06/05 12:49:47;;;;;;;4.85;1.75;;;24.70;99.90;;;;;;4977148;28;20038;-60
2022/06/05 12:52:33;;;;;;;5.20;1.90;;;24.70;99.90;;;;;;4977124;28;20037;-60
2022/06/05 12:55:05;;;;;;;2.75;1.58;;;24.60;99.90;;;;;;4980443;28;20060;-61
2022/06/05 12:57:48;;;;;;;3.08;1.73;;;24.80;99.90;;;;;;4983559;28;20042;-60
2022/06/05 13:00:53;;;;;;;2.85;1.63;;;24.60;99.90;;;;;;4984185;28;20041;-60
2022/06/05 13:03:30;;;;;;;3.38;1.75;;;24.60;99.90;;;;;;4976956;28;20108;-61
2022/06/05 13:06:16;;;;;;;3.78;1.80;;;24.80;99.90;;;;;;4984590;28;20030;-60
2022/06/05 13:08:59;;;;;;;2.90;1.50;;;24.80;99.90;;;;;;4971796;28;20510;-61
2022/06/05 13:11:43;;;;;;;3.03;1.70;;;24.60;99.90;;;;;;4972339;28;20057;-60
2022/06/05 13:14:17;;;;;;;;;;;24.50;99.90;;;;;;4986914;28;20072;-61
2022/06/05 13:16:55;;;;;;;3.88;2.00;;;24.80;99.40;;;;;;4995891;28;19905;-60
2022/06/05 13:19:41;;;;;;;2.75;1.80;;;24.70;99.90;;;;;;4998381;28;20034;-61
2022/06/05 13:22:27;;;;;;;1.73;1.50;;;24.80;99.90;;;;;;4998178;28;20026;-61
2022/06/05 13:24:56;;;;;;;2.50;1.65;;;24.30;99.90;;;;;;4997997;28;20113;-61
2022/06/05 13:27:30;;;;;;;2.80;1.50;;;24.60;99.90;;;;;;4998070;28;20509;-60
2022/06/05 13:30:17;;;;;;;2.75;1.80;;;24.60;99.90;;;;;;4998456;28;20105;-61
2022/06/05 13:32:42;;;;;;;2.28;1.77;;;24.30;99.90;;;;;;4982266;28;20029;-61
2022/06/05 13:35:17;;;;;;;3.70;1.60;;;24.00;99.80;;;;;;4994771;28;20380;-61
2022/06/05 13:37:55;;;;;;;2.80;1.55;;;24.20;99.90;;;;;;4997557;28;20085;-60
2022/06/05 13:41:03;;;;;;;2.75;1.70;;;24.30;99.90;;;;;;4997875;28;20031;-60